sensor_id;sensor_type;location;lat;lon;timestamp;P1;durP1;ratioP1;P2;durP2;ratioP2
19406;SDS011;9839;53.364;-1.204;2023-11-19T00:01:47;24.67;;;3.47;;
19406;SDS011;9839;53.364;-1.204;2023-11-19T00:04:12;28.27;;;4.30;;
19406;SDS011;9839;53.364;-1.204;2023-11-19T00:06:38;22.23;;;3.00;;
19406;SDS011;9839;53.364;-1.204;2023-11-19T00:09:04;26.67;;;3.80;;
19406;SDS011;9839;53.364;-1.204;2023-11-19T00:11:30;23.03;;;3.20;;
19406;SDS011;9839;53.364;-1.204;2023-11-19T00:13:56;19.53;;;3.50;;
19406;SDS011;9839;53.364;-1.204;2023-11-19T00:16:21;18.77;;;3.07;;
19406;SDS011;9839;53.364;-1.204;2023-11-19T00:18:47;19.07;;;2.87;;
19406;SDS011;9839;53.364;-1.204;2023-11-19T00:21:12;20.77;;;2.80;;
19406;SDS011;9839;53.364;-1.204;2023-11-19T00:23:38;19.67;;;3.53;;
19406;SDS011;9839;53.364;-1.204;2023-11-19T00:26:03;24.53;;;4.27;;
19406;SDS011;9839;53.364;-1.204;2023-11-19T00:28:31;14.80;;;2.97;;
19406;SDS011;9839;53.364;-1.204;2023-11-19T00:30:58;25.87;;;3.90;;
19406;SDS011;9839;53.364;-1.204;2023-11-19T00:33:24;26.17;;;3.53;;
19406;SDS011;9839;53.364;-1.204;2023-11-19T00:35:49;25.80;;;3.30;;
19406;SDS011;9839;53.364;-1.204;2023-11-19T00:38:15;20.47;;;3.07;;
19406;SDS011;9839;53.364;-1.204;2023-11-19T00:40:41;22.90;;;3.30;;
19406;SDS011;9839;53.364;-1.204;2023-11-19T00:43:06;18.67;;;3.07;;
19406;SDS011;9839;53.364;-1.204;2023-11-19T00:45:32;20.10;;;4.37;;
19406;SDS011;9839;53.364;-1.204;2023-11-19T00:47:59;20.10;;;2.83;;
19406;SDS011;9839;53.364;-1.204;2023-11-19T00:50:25;26.50;;;3.27;;
19406;SDS011;9839;53.364;-1.204;2023-11-19T00:52:51;21.50;;;3.50;;
19406;SDS011;9839;53.364;-1.204;2023-11-19T00:55:16;22.30;;;2.97;;
19406;SDS011;9839;53.364;-1.204;2023-11-19T00:57:42;20.93;;;3.47;;
19406;SDS011;9839;53.364;-1.204;2023-11-19T01:00:08;22.10;;;3.43;;
19406;SDS011;9839;53.364;-1.204;2023-11-19T01:02:43;23.33;;;3.03;;
19406;SDS011;9839;53.364;-1.204;2023-11-19T01:05:09;23.57;;;3.73;;
19406;SDS011;9839;53.364;-1.204;2023-11-19T01:07:34;18.43;;;2.83;;
19406;SDS011;9839;53.364;-1.204;2023-11-19T01:10:00;20.40;;;3.17;;
19406;SDS011;9839;53.364;-1.204;2023-11-19T01:12:25;21.63;;;3.67;;
19406;SDS011;9839;53.364;-1.204;2023-11-19T01:14:51;16.23;;;3.03;;
19406;SDS011;9839;53.364;-1.204;2023-11-19T01:17:16;21.43;;;3.53;;
19406;SDS011;9839;53.364;-1.204;2023-11-19T01:19:42;22.60;;;2.97;;
19406;SDS011;9839;53.364;-1.204;2023-11-19T01:22:07;21.77;;;3.10;;
19406;SDS011;9839;53.364;-1.204;2023-11-19T01:24:33;25.67;;;3.40;;
19406;SDS011;9839;53.364;-1.204;2023-11-19T01:26:59;15.97;;;2.73;;
19406;SDS011;9839;53.364;-1.204;2023-11-19T01:29:25;19.77;;;3.03;;
19406;SDS011;9839;53.364;-1.204;2023-11-19T01:31:50;27.10;;;4.30;;
19406;SDS011;9839;53.364;-1.204;2023-11-19T01:34:18;22.43;;;2.77;;
19406;SDS011;9839;53.364;-1.204;2023-11-19T01:36:44;19.97;;;3.30;;
19406;SDS011;9839;53.364;-1.204;2023-11-19T01:39:11;23.00;;;4.10;;
19406;SDS011;9839;53.364;-1.204;2023-11-19T01:41:37;21.47;;;3.80;;
19406;SDS011;9839;53.364;-1.204;2023-11-19T01:44:05;21.17;;;3.83;;
19406;SDS011;9839;53.364;-1.204;2023-11-19T01:46:31;26.83;;;3.47;;
19406;SDS011;9839;53.364;-1.204;2023-11-19T01:49:00;17.07;;;2.73;;
19406;SDS011;9839;53.364;-1.204;2023-11-19T01:51:26;18.70;;;3.43;;
19406;SDS011;9839;53.364;-1.204;2023-11-19T01:53:51;22.27;;;3.73;;
19406;SDS011;9839;53.364;-1.204;2023-11-19T01:56:17;35.73;;;4.40;;
19406;SDS011;9839;53.364;-1.204;2023-11-19T01:58:43;17.83;;;3.53;;
19406;SDS011;9839;53.364;-1.204;2023-11-19T02:01:10;23.43;;;3.27;;
19406;SDS011;9839;53.364;-1.204;2023-11-19T02:03:37;23.10;;;3.23;;
19406;SDS011;9839;53.364;-1.204;2023-11-19T02:06:03;20.57;;;3.17;;
19406;SDS011;9839;53.364;-1.204;2023-11-19T02:08:29;18.70;;;2.90;;
19406;SDS011;9839;53.364;-1.204;2023-11-19T02:10:55;21.60;;;3.37;;
19406;SDS011;9839;53.364;-1.204;2023-11-19T02:13:23;24.63;;;3.37;;
19406;SDS011;9839;53.364;-1.204;2023-11-19T02:15:50;21.03;;;2.43;;
19406;SDS011;9839;53.364;-1.204;2023-11-19T02:18:23;24.37;;;3.80;;
19406;SDS011;9839;53.364;-1.204;2023-11-19T02:20:52;23.43;;;3.03;;
19406;SDS011;9839;53.364;-1.204;2023-11-19T02:23:19;17.63;;;3.40;;
19406;SDS011;9839;53.364;-1.204;2023-11-19T02:28:20;19.17;;;2.93;;
19406;SDS011;9839;53.364;-1.204;2023-11-19T02:30:45;17.23;;;2.70;;
19406;SDS011;9839;53.364;-1.204;2023-11-19T02:33:11;21.70;;;3.73;;
19406;SDS011;9839;53.364;-1.204;2023-11-19T02:35:38;16.00;;;2.57;;
19406;SDS011;9839;53.364;-1.204;2023-11-19T02:38:03;14.57;;;2.90;;
19406;SDS011;9839;53.364;-1.204;2023-11-19T02:40:29;18.87;;;2.67;;
19406;SDS011;9839;53.364;-1.204;2023-11-19T02:42:54;12.37;;;2.97;;
19406;SDS011;9839;53.364;-1.204;2023-11-19T02:45:21;19.70;;;3.03;;
19406;SDS011;9839;53.364;-1.204;2023-11-19T02:47:47;20.13;;;2.50;;
19406;SDS011;9839;53.364;-1.204;2023-11-19T02:50:13;21.13;;;3.17;;
19406;SDS011;9839;53.364;-1.204;2023-11-19T02:52:42;20.37;;;2.80;;
19406;SDS011;9839;53.364;-1.204;2023-11-19T02:55:12;17.07;;;3.00;;
19406;SDS011;9839;53.364;-1.204;2023-11-19T02:57:38;11.87;;;2.43;;
19406;SDS011;9839;53.364;-1.204;2023-11-19T03:00:12;17.53;;;2.30;;
19406;SDS011;9839;53.364;-1.204;2023-11-19T03:02:41;19.37;;;3.23;;
19406;SDS011;9839;53.364;-1.204;2023-11-19T03:05:11;14.03;;;2.73;;
19406;SDS011;9839;53.364;-1.204;2023-11-19T03:07:39;9.33;;;2.33;;
19406;SDS011;9839;53.364;-1.204;2023-11-19T03:10:11;18.20;;;2.70;;
19406;SDS011;9839;53.364;-1.204;2023-11-19T03:12:39;14.13;;;2.80;;
19406;SDS011;9839;53.364;-1.204;2023-11-19T03:15:07;16.90;;;3.17;;
19406;SDS011;9839;53.364;-1.204;2023-11-19T03:17:35;18.80;;;2.87;;
19406;SDS011;9839;53.364;-1.204;2023-11-19T03:20:03;18.40;;;2.67;;
19406;SDS011;9839;53.364;-1.204;2023-11-19T03:22:32;16.27;;;2.53;;
19406;SDS011;9839;53.364;-1.204;2023-11-19T03:24:59;15.43;;;2.40;;
19406;SDS011;9839;53.364;-1.204;2023-11-19T03:27:25;15.27;;;3.10;;
19406;SDS011;9839;53.364;-1.204;2023-11-19T03:29:50;18.77;;;2.30;;
19406;SDS011;9839;53.364;-1.204;2023-11-19T03:32:16;15.33;;;2.90;;
19406;SDS011;9839;53.364;-1.204;2023-11-19T03:34:41;13.00;;;2.40;;
19406;SDS011;9839;53.364;-1.204;2023-11-19T03:37:06;14.23;;;2.53;;
19406;SDS011;9839;53.364;-1.204;2023-11-19T03:39:32;21.37;;;3.20;;
19406;SDS011;9839;53.364;-1.204;2023-11-19T03:41:58;26.10;;;3.20;;
19406;SDS011;9839;53.364;-1.204;2023-11-19T03:44:23;15.53;;;2.60;;
19406;SDS011;9839;53.364;-1.204;2023-11-19T03:46:52;11.10;;;2.40;;
19406;SDS011;9839;53.364;-1.204;2023-11-19T03:49:17;9.90;;;2.70;;
19406;SDS011;9839;53.364;-1.204;2023-11-19T03:51:43;16.10;;;2.57;;
19406;SDS011;9839;53.364;-1.204;2023-11-19T03:54:08;14.13;;;2.20;;
19406;SDS011;9839;53.364;-1.204;2023-11-19T03:56:33;20.37;;;2.97;;
19406;SDS011;9839;53.364;-1.204;2023-11-19T03:58:59;15.73;;;2.57;;
19406;SDS011;9839;53.364;-1.204;2023-11-19T04:01:25;19.53;;;2.33;;
19406;SDS011;9839;53.364;-1.204;2023-11-19T04:03:50;10.43;;;2.10;;
19406;SDS011;9839;53.364;-1.204;2023-11-19T04:06:15;19.33;;;3.23;;
19406;SDS011;9839;53.364;-1.204;2023-11-19T04:08:41;13.53;;;2.47;;
19406;SDS011;9839;53.364;-1.204;2023-11-19T04:11:06;23.43;;;2.60;;
19406;SDS011;9839;53.364;-1.204;2023-11-19T04:13:33;19.83;;;2.67;;
19406;SDS011;9839;53.364;-1.204;2023-11-19T04:15:59;13.47;;;2.53;;
19406;SDS011;9839;53.364;-1.204;2023-11-19T04:18:25;18.57;;;2.43;;
19406;SDS011;9839;53.364;-1.204;2023-11-19T04:20:50;14.53;;;2.67;;
19406;SDS011;9839;53.364;-1.204;2023-11-19T04:23:16;8.93;;;2.33;;
19406;SDS011;9839;53.364;-1.204;2023-11-19T04:25:41;9.63;;;2.13;;
19406;SDS011;9839;53.364;-1.204;2023-11-19T04:28:07;22.17;;;3.07;;
19406;SDS011;9839;53.364;-1.204;2023-11-19T04:30:33;15.43;;;2.30;;
19406;SDS011;9839;53.364;-1.204;2023-11-19T04:32:59;21.13;;;2.60;;
19406;SDS011;9839;53.364;-1.204;2023-11-19T04:35:24;23.33;;;3.20;;
19406;SDS011;9839;53.364;-1.204;2023-11-19T04:37:51;11.97;;;2.80;;
19406;SDS011;9839;53.364;-1.204;2023-11-19T04:40:16;14.30;;;1.83;;
19406;SDS011;9839;53.364;-1.204;2023-11-19T04:42:43;14.40;;;2.57;;
19406;SDS011;9839;53.364;-1.204;2023-11-19T04:45:09;19.20;;;2.20;;
19406;SDS011;9839;53.364;-1.204;2023-11-19T04:47:35;8.60;;;2.07;;
19406;SDS011;9839;53.364;-1.204;2023-11-19T04:50:01;16.07;;;2.23;;
19406;SDS011;9839;53.364;-1.204;2023-11-19T04:52:27;18.07;;;2.83;;
19406;SDS011;9839;53.364;-1.204;2023-11-19T04:54:53;11.10;;;2.10;;
19406;SDS011;9839;53.364;-1.204;2023-11-19T04:57:18;14.20;;;2.63;;
19406;SDS011;9839;53.364;-1.204;2023-11-19T04:59:44;21.60;;;2.67;;
19406;SDS011;9839;53.364;-1.204;2023-11-19T05:02:10;14.20;;;2.20;;
19406;SDS011;9839;53.364;-1.204;2023-11-19T05:04:36;16.37;;;2.00;;
19406;SDS011;9839;53.364;-1.204;2023-11-19T05:07:03;15.37;;;1.80;;
19406;SDS011;9839;53.364;-1.204;2023-11-19T05:09:29;11.83;;;1.90;;
19406;SDS011;9839;53.364;-1.204;2023-11-19T05:11:55;12.73;;;2.17;;
19406;SDS011;9839;53.364;-1.204;2023-11-19T05:14:21;15.27;;;2.07;;
19406;SDS011;9839;53.364;-1.204;2023-11-19T05:16:47;15.23;;;2.27;;
19406;SDS011;9839;53.364;-1.204;2023-11-19T05:19:12;9.40;;;1.80;;
19406;SDS011;9839;53.364;-1.204;2023-11-19T05:21:41;9.30;;;1.87;;
19406;SDS011;9839;53.364;-1.204;2023-11-19T05:24:08;10.57;;;1.93;;
19406;SDS011;9839;53.364;-1.204;2023-11-19T05:26:33;10.07;;;1.23;;
19406;SDS011;9839;53.364;-1.204;2023-11-19T05:28:59;7.57;;;1.27;;
19406;SDS011;9839;53.364;-1.204;2023-11-19T05:31:24;11.33;;;1.77;;
19406;SDS011;9839;53.364;-1.204;2023-11-19T05:33:49;10.53;;;1.47;;
19406;SDS011;9839;53.364;-1.204;2023-11-19T05:36:15;12.07;;;2.20;;
19406;SDS011;9839;53.364;-1.204;2023-11-19T05:38:40;7.80;;;1.63;;
19406;SDS011;9839;53.364;-1.204;2023-11-19T05:41:06;10.70;;;1.73;;
19406;SDS011;9839;53.364;-1.204;2023-11-19T05:43:32;13.10;;;1.97;;
19406;SDS011;9839;53.364;-1.204;2023-11-19T05:45:57;12.60;;;2.10;;
19406;SDS011;9839;53.364;-1.204;2023-11-19T05:48:24;8.30;;;1.90;;
19406;SDS011;9839;53.364;-1.204;2023-11-19T05:50:51;17.83;;;2.07;;
19406;SDS011;9839;53.364;-1.204;2023-11-19T05:53:16;11.60;;;2.23;;
19406;SDS011;9839;53.364;-1.204;2023-11-19T05:55:42;14.90;;;1.90;;
19406;SDS011;9839;53.364;-1.204;2023-11-19T05:58:27;18.43;;;2.30;;
19406;SDS011;9839;53.364;-1.204;2023-11-19T06:00:57;13.50;;;2.03;;
19406;SDS011;9839;53.364;-1.204;2023-11-19T06:03:23;13.20;;;2.40;;
19406;SDS011;9839;53.364;-1.204;2023-11-19T06:05:49;12.87;;;1.97;;
19406;SDS011;9839;53.364;-1.204;2023-11-19T06:08:14;17.57;;;2.20;;
19406;SDS011;9839;53.364;-1.204;2023-11-19T06:10:40;22.03;;;2.50;;
19406;SDS011;9839;53.364;-1.204;2023-11-19T06:13:06;19.27;;;2.50;;
19406;SDS011;9839;53.364;-1.204;2023-11-19T06:15:35;15.60;;;2.50;;
19406;SDS011;9839;53.364;-1.204;2023-11-19T06:18:00;12.47;;;2.83;;
19406;SDS011;9839;53.364;-1.204;2023-11-19T06:20:27;15.13;;;2.47;;
19406;SDS011;9839;53.364;-1.204;2023-11-19T06:22:56;21.57;;;2.47;;
19406;SDS011;9839;53.364;-1.204;2023-11-19T06:25:22;23.33;;;3.33;;
19406;SDS011;9839;53.364;-1.204;2023-11-19T06:27:49;21.90;;;3.27;;
19406;SDS011;9839;53.364;-1.204;2023-11-19T06:30:15;16.30;;;2.43;;
19406;SDS011;9839;53.364;-1.204;2023-11-19T06:32:41;13.77;;;1.93;;
19406;SDS011;9839;53.364;-1.204;2023-11-19T06:35:07;19.40;;;2.57;;
19406;SDS011;9839;53.364;-1.204;2023-11-19T06:37:33;11.43;;;2.20;;
19406;SDS011;9839;53.364;-1.204;2023-11-19T06:39:58;19.60;;;2.87;;
19406;SDS011;9839;53.364;-1.204;2023-11-19T06:42:24;19.00;;;2.80;;
19406;SDS011;9839;53.364;-1.204;2023-11-19T06:44:49;15.73;;;2.30;;
19406;SDS011;9839;53.364;-1.204;2023-11-19T06:47:15;15.30;;;1.77;;
19406;SDS011;9839;53.364;-1.204;2023-11-19T06:49:43;16.13;;;2.67;;
19406;SDS011;9839;53.364;-1.204;2023-11-19T06:52:09;12.00;;;1.97;;
19406;SDS011;9839;53.364;-1.204;2023-11-19T06:54:35;9.37;;;2.07;;
19406;SDS011;9839;53.364;-1.204;2023-11-19T06:57:01;14.70;;;1.93;;
19406;SDS011;9839;53.364;-1.204;2023-11-19T06:59:27;17.07;;;2.27;;
19406;SDS011;9839;53.364;-1.204;2023-11-19T07:01:54;17.47;;;2.63;;
19406;SDS011;9839;53.364;-1.204;2023-11-19T07:04:19;10.27;;;1.97;;
19406;SDS011;9839;53.364;-1.204;2023-11-19T07:06:45;14.07;;;2.17;;
19406;SDS011;9839;53.364;-1.204;2023-11-19T07:09:10;18.80;;;2.30;;
19406;SDS011;9839;53.364;-1.204;2023-11-19T07:11:36;12.27;;;2.50;;
19406;SDS011;9839;53.364;-1.204;2023-11-19T07:14:05;13.33;;;2.17;;
19406;SDS011;9839;53.364;-1.204;2023-11-19T07:16:32;9.63;;;2.30;;
19406;SDS011;9839;53.364;-1.204;2023-11-19T07:19:00;14.60;;;2.03;;
19406;SDS011;9839;53.364;-1.204;2023-11-19T07:21:26;15.23;;;2.07;;
19406;SDS011;9839;53.364;-1.204;2023-11-19T07:23:53;15.57;;;1.67;;
19406;SDS011;9839;53.364;-1.204;2023-11-19T07:26:19;9.30;;;2.00;;
19406;SDS011;9839;53.364;-1.204;2023-11-19T07:28:45;15.63;;;2.00;;
19406;SDS011;9839;53.364;-1.204;2023-11-19T07:31:10;13.13;;;1.80;;
19406;SDS011;9839;53.364;-1.204;2023-11-19T07:33:36;11.63;;;1.77;;
19406;SDS011;9839;53.364;-1.204;2023-11-19T07:36:02;8.90;;;1.97;;
19406;SDS011;9839;53.364;-1.204;2023-11-19T07:38:27;17.30;;;2.87;;
19406;SDS011;9839;53.364;-1.204;2023-11-19T07:40:53;16.90;;;2.13;;
19406;SDS011;9839;53.364;-1.204;2023-11-19T07:43:18;12.37;;;1.93;;
19406;SDS011;9839;53.364;-1.204;2023-11-19T07:45:44;15.80;;;1.90;;
19406;SDS011;9839;53.364;-1.204;2023-11-19T07:48:11;9.40;;;2.20;;
19406;SDS011;9839;53.364;-1.204;2023-11-19T07:50:38;10.43;;;2.23;;
19406;SDS011;9839;53.364;-1.204;2023-11-19T07:53:06;10.20;;;1.60;;
19406;SDS011;9839;53.364;-1.204;2023-11-19T07:55:32;16.60;;;2.00;;
19406;SDS011;9839;53.364;-1.204;2023-11-19T07:57:58;10.17;;;1.57;;
19406;SDS011;9839;53.364;-1.204;2023-11-19T08:00:24;13.70;;;3.67;;
19406;SDS011;9839;53.364;-1.204;2023-11-19T08:02:49;12.67;;;2.17;;
19406;SDS011;9839;53.364;-1.204;2023-11-19T08:05:15;7.80;;;1.97;;
19406;SDS011;9839;53.364;-1.204;2023-11-19T08:07:40;13.07;;;1.90;;
19406;SDS011;9839;53.364;-1.204;2023-11-19T08:10:06;8.50;;;1.80;;
19406;SDS011;9839;53.364;-1.204;2023-11-19T08:12:35;7.00;;;1.60;;
19406;SDS011;9839;53.364;-1.204;2023-11-19T08:15:01;15.03;;;2.20;;
19406;SDS011;9839;53.364;-1.204;2023-11-19T08:17:27;15.37;;;1.83;;
19406;SDS011;9839;53.364;-1.204;2023-11-19T08:19:53;13.77;;;1.97;;
19406;SDS011;9839;53.364;-1.204;2023-11-19T08:22:18;16.20;;;2.20;;
19406;SDS011;9839;53.364;-1.204;2023-11-19T08:24:44;10.90;;;2.10;;
19406;SDS011;9839;53.364;-1.204;2023-11-19T08:27:09;16.40;;;2.33;;
19406;SDS011;9839;53.364;-1.204;2023-11-19T08:29:35;19.80;;;2.37;;
19406;SDS011;9839;53.364;-1.204;2023-11-19T08:32:00;16.23;;;2.87;;
19406;SDS011;9839;53.364;-1.204;2023-11-19T08:34:28;16.30;;;3.37;;
19406;SDS011;9839;53.364;-1.204;2023-11-19T08:36:54;17.37;;;2.67;;
19406;SDS011;9839;53.364;-1.204;2023-11-19T08:39:20;18.20;;;2.80;;
19406;SDS011;9839;53.364;-1.204;2023-11-19T08:41:48;19.37;;;2.50;;
19406;SDS011;9839;53.364;-1.204;2023-11-19T08:44:13;13.30;;;2.43;;
19406;SDS011;9839;53.364;-1.204;2023-11-19T08:46:45;13.10;;;3.17;;
19406;SDS011;9839;53.364;-1.204;2023-11-19T08:49:12;12.67;;;2.50;;
19406;SDS011;9839;53.364;-1.204;2023-11-19T08:51:37;8.90;;;2.03;;
19406;SDS011;9839;53.364;-1.204;2023-11-19T08:54:03;10.10;;;1.80;;
19406;SDS011;9839;53.364;-1.204;2023-11-19T08:56:28;11.30;;;2.27;;
19406;SDS011;9839;53.364;-1.204;2023-11-19T08:58:58;11.83;;;2.23;;
19406;SDS011;9839;53.364;-1.204;2023-11-19T09:01:23;16.87;;;3.20;;
19406;SDS011;9839;53.364;-1.204;2023-11-19T09:03:49;14.70;;;2.80;;
19406;SDS011;9839;53.364;-1.204;2023-11-19T09:06:15;12.03;;;2.13;;
19406;SDS011;9839;53.364;-1.204;2023-11-19T09:08:41;8.30;;;2.17;;
19406;SDS011;9839;53.364;-1.204;2023-11-19T09:11:07;18.90;;;2.43;;
19406;SDS011;9839;53.364;-1.204;2023-11-19T09:13:34;12.97;;;2.20;;
19406;SDS011;9839;53.364;-1.204;2023-11-19T09:16:00;14.43;;;2.13;;
19406;SDS011;9839;53.364;-1.204;2023-11-19T09:18:29;14.33;;;2.20;;
19406;SDS011;9839;53.364;-1.204;2023-11-19T09:20:54;14.30;;;2.23;;
19406;SDS011;9839;53.364;-1.204;2023-11-19T09:23:20;14.30;;;2.47;;
19406;SDS011;9839;53.364;-1.204;2023-11-19T09:25:45;16.20;;;2.43;;
19406;SDS011;9839;53.364;-1.204;2023-11-19T09:28:11;14.83;;;2.33;;
19406;SDS011;9839;53.364;-1.204;2023-11-19T09:30:38;12.20;;;2.07;;
19406;SDS011;9839;53.364;-1.204;2023-11-19T09:33:03;9.90;;;2.03;;
19406;SDS011;9839;53.364;-1.204;2023-11-19T09:35:29;14.00;;;2.17;;
19406;SDS011;9839;53.364;-1.204;2023-11-19T09:37:54;14.80;;;2.10;;
19406;SDS011;9839;53.364;-1.204;2023-11-19T09:40:20;9.10;;;1.87;;
19406;SDS011;9839;53.364;-1.204;2023-11-19T09:42:45;7.63;;;2.57;;
19406;SDS011;9839;53.364;-1.204;2023-11-19T09:45:15;15.60;;;2.40;;
19406;SDS011;9839;53.364;-1.204;2023-11-19T09:47:44;11.63;;;2.20;;
19406;SDS011;9839;53.364;-1.204;2023-11-19T09:50:15;17.37;;;2.10;;
19406;SDS011;9839;53.364;-1.204;2023-11-19T09:52:43;13.77;;;2.53;;
19406;SDS011;9839;53.364;-1.204;2023-11-19T09:55:08;9.37;;;1.93;;
19406;SDS011;9839;53.364;-1.204;2023-11-19T09:57:34;11.67;;;2.30;;
19406;SDS011;9839;53.364;-1.204;2023-11-19T10:00:02;13.97;;;2.00;;
19406;SDS011;9839;53.364;-1.204;2023-11-19T10:02:30;8.47;;;1.67;;
19406;SDS011;9839;53.364;-1.204;2023-11-19T10:04:56;12.67;;;1.77;;
19406;SDS011;9839;53.364;-1.204;2023-11-19T10:07:24;6.83;;;1.20;;
19406;SDS011;9839;53.364;-1.204;2023-11-19T10:09:50;9.17;;;1.67;;
19406;SDS011;9839;53.364;-1.204;2023-11-19T10:12:15;9.77;;;1.20;;
19406;SDS011;9839;53.364;-1.204;2023-11-19T10:14:42;5.20;;;1.50;;
19406;SDS011;9839;53.364;-1.204;2023-11-19T10:17:08;8.70;;;1.63;;
19406;SDS011;9839;53.364;-1.204;2023-11-19T10:19:34;7.13;;;1.30;;
19406;SDS011;9839;53.364;-1.204;2023-11-19T10:22:06;5.33;;;1.00;;
19406;SDS011;9839;53.364;-1.204;2023-11-19T10:24:32;9.17;;;1.73;;
19406;SDS011;9839;53.364;-1.204;2023-11-19T10:27:06;4.97;;;1.33;;
19406;SDS011;9839;53.364;-1.204;2023-11-19T10:29:36;8.97;;;1.00;;
19406;SDS011;9839;53.364;-1.204;2023-11-19T10:32:02;4.87;;;1.00;;
19406;SDS011;9839;53.364;-1.204;2023-11-19T10:34:28;7.87;;;1.27;;
19406;SDS011;9839;53.364;-1.204;2023-11-19T10:36:55;4.20;;;1.10;;
19406;SDS011;9839;53.364;-1.204;2023-11-19T10:39:20;8.63;;;1.57;;
19406;SDS011;9839;53.364;-1.204;2023-11-19T10:41:46;10.43;;;1.57;;
19406;SDS011;9839;53.364;-1.204;2023-11-19T10:44:12;5.57;;;1.07;;
19406;SDS011;9839;53.364;-1.204;2023-11-19T10:46:38;7.93;;;1.40;;
19406;SDS011;9839;53.364;-1.204;2023-11-19T10:49:05;9.57;;;2.03;;
19406;SDS011;9839;53.364;-1.204;2023-11-19T10:51:31;10.73;;;1.33;;
19406;SDS011;9839;53.364;-1.204;2023-11-19T10:54:02;12.90;;;1.73;;
19406;SDS011;9839;53.364;-1.204;2023-11-19T10:56:32;7.37;;;1.47;;
19406;SDS011;9839;53.364;-1.204;2023-11-19T10:59:01;12.80;;;1.70;;
19406;SDS011;9839;53.364;-1.204;2023-11-19T11:01:34;9.97;;;1.57;;
19406;SDS011;9839;53.364;-1.204;2023-11-19T11:04:05;15.17;;;1.57;;
19406;SDS011;9839;53.364;-1.204;2023-11-19T11:06:38;15.20;;;2.90;;
19406;SDS011;9839;53.364;-1.204;2023-11-19T11:09:05;9.17;;;1.90;;
19406;SDS011;9839;53.364;-1.204;2023-11-19T11:11:31;17.40;;;2.47;;
19406;SDS011;9839;53.364;-1.204;2023-11-19T11:13:56;10.57;;;3.10;;
19406;SDS011;9839;53.364;-1.204;2023-11-19T11:16:24;9.43;;;1.73;;
19406;SDS011;9839;53.364;-1.204;2023-11-19T11:18:50;10.47;;;1.70;;
19406;SDS011;9839;53.364;-1.204;2023-11-19T11:21:17;7.43;;;1.93;;
19406;SDS011;9839;53.364;-1.204;2023-11-19T11:29:11;6.83;;;1.50;;
19406;SDS011;9839;53.364;-1.204;2023-11-19T11:37:53;8.23;;;1.43;;
19406;SDS011;9839;53.364;-1.204;2023-11-19T11:40:21;11.13;;;2.00;;
19406;SDS011;9839;53.364;-1.204;2023-11-19T11:42:48;9.83;;;1.47;;
19406;SDS011;9839;53.364;-1.204;2023-11-19T11:45:17;6.70;;;1.50;;
19406;SDS011;9839;53.364;-1.204;2023-11-19T11:50:15;7.73;;;2.23;;
19406;SDS011;9839;53.364;-1.204;2023-11-19T11:57:57;8.13;;;1.90;;
19406;SDS011;9839;53.364;-1.204;2023-11-19T12:00:26;10.63;;;2.27;;
19406;SDS011;9839;53.364;-1.204;2023-11-19T12:02:56;9.80;;;2.23;;
19406;SDS011;9839;53.364;-1.204;2023-11-19T12:05:22;10.43;;;1.70;;
19406;SDS011;9839;53.364;-1.204;2023-11-19T12:07:57;10.47;;;1.87;;
19406;SDS011;9839;53.364;-1.204;2023-11-19T12:10:26;11.60;;;1.93;;
19406;SDS011;9839;53.364;-1.204;2023-11-19T12:12:53;12.10;;;1.63;;
19406;SDS011;9839;53.364;-1.204;2023-11-19T12:15:19;10.90;;;1.70;;
19406;SDS011;9839;53.364;-1.204;2023-11-19T12:17:50;7.17;;;1.70;;
19406;SDS011;9839;53.364;-1.204;2023-11-19T12:20:19;7.17;;;1.37;;
19406;SDS011;9839;53.364;-1.204;2023-11-19T12:22:46;10.77;;;2.00;;
19406;SDS011;9839;53.364;-1.204;2023-11-19T12:25:14;8.47;;;1.90;;
19406;SDS011;9839;53.364;-1.204;2023-11-19T12:27:45;3.53;;;1.27;;
19406;SDS011;9839;53.364;-1.204;2023-11-19T12:30:20;5.10;;;1.37;;
19406;SDS011;9839;53.364;-1.204;2023-11-19T12:32:47;10.27;;;3.20;;
19406;SDS011;9839;53.364;-1.204;2023-11-19T12:35:13;8.17;;;1.30;;
19406;SDS011;9839;53.364;-1.204;2023-11-19T12:37:47;5.77;;;1.07;;
19406;SDS011;9839;53.364;-1.204;2023-11-19T12:42:40;8.47;;;1.30;;
19406;SDS011;9839;53.364;-1.204;2023-11-19T12:45:06;8.83;;;1.47;;
19406;SDS011;9839;53.364;-1.204;2023-11-19T12:47:33;4.23;;;1.50;;
19406;SDS011;9839;53.364;-1.204;2023-11-19T12:49:59;4.07;;;1.30;;
19406;SDS011;9839;53.364;-1.204;2023-11-19T12:52:24;5.80;;;1.40;;
19406;SDS011;9839;53.364;-1.204;2023-11-19T12:54:50;4.03;;;1.27;;
19406;SDS011;9839;53.364;-1.204;2023-11-19T12:57:16;6.57;;;1.40;;
19406;SDS011;9839;53.364;-1.204;2023-11-19T12:59:53;5.43;;;1.20;;
19406;SDS011;9839;53.364;-1.204;2023-11-19T13:02:21;5.30;;;1.00;;
19406;SDS011;9839;53.364;-1.204;2023-11-19T13:04:47;4.67;;;0.97;;
19406;SDS011;9839;53.364;-1.204;2023-11-19T13:07:12;4.83;;;0.90;;
19406;SDS011;9839;53.364;-1.204;2023-11-19T13:09:38;5.33;;;1.00;;
19406;SDS011;9839;53.364;-1.204;2023-11-19T13:12:12;3.90;;;0.80;;
19406;SDS011;9839;53.364;-1.204;2023-11-19T13:14:39;1.77;;;0.70;;
19406;SDS011;9839;53.364;-1.204;2023-11-19T13:17:07;3.37;;;0.60;;
19406;SDS011;9839;53.364;-1.204;2023-11-19T13:19:33;3.50;;;0.80;;
19406;SDS011;9839;53.364;-1.204;2023-11-19T13:21:59;4.03;;;1.10;;
19406;SDS011;9839;53.364;-1.204;2023-11-19T13:24:24;4.03;;;0.60;;
19406;SDS011;9839;53.364;-1.204;2023-11-19T13:26:50;5.00;;;0.87;;
19406;SDS011;9839;53.364;-1.204;2023-11-19T13:29:15;2.40;;;0.70;;
19406;SDS011;9839;53.364;-1.204;2023-11-19T13:31:41;6.43;;;1.23;;
19406;SDS011;9839;53.364;-1.204;2023-11-19T13:34:06;4.90;;;1.00;;
19406;SDS011;9839;53.364;-1.204;2023-11-19T13:36:33;1.63;;;0.97;;
19406;SDS011;9839;53.364;-1.204;2023-11-19T13:38:59;3.63;;;1.07;;
19406;SDS011;9839;53.364;-1.204;2023-11-19T13:41:25;10.50;;;1.97;;
19406;SDS011;9839;53.364;-1.204;2023-11-19T13:43:51;5.03;;;1.43;;
19406;SDS011;9839;53.364;-1.204;2023-11-19T13:46:17;3.93;;;1.10;;
19406;SDS011;9839;53.364;-1.204;2023-11-19T13:48:42;2.30;;;1.00;;
19406;SDS011;9839;53.364;-1.204;2023-11-19T13:51:08;3.53;;;1.00;;
19406;SDS011;9839;53.364;-1.204;2023-11-19T13:53:35;2.43;;;1.10;;
19406;SDS011;9839;53.364;-1.204;2023-11-19T13:56:00;5.23;;;1.20;;
19406;SDS011;9839;53.364;-1.204;2023-11-19T13:58:26;3.13;;;0.80;;
19406;SDS011;9839;53.364;-1.204;2023-11-19T14:00:51;5.97;;;0.90;;
19406;SDS011;9839;53.364;-1.204;2023-11-19T14:03:17;3.93;;;1.67;;
19406;SDS011;9839;53.364;-1.204;2023-11-19T14:05:42;4.43;;;1.23;;
19406;SDS011;9839;53.364;-1.204;2023-11-19T14:08:08;4.83;;;1.13;;
19406;SDS011;9839;53.364;-1.204;2023-11-19T14:10:37;1.50;;;0.87;;
19406;SDS011;9839;53.364;-1.204;2023-11-19T14:13:08;3.80;;;0.90;;
19406;SDS011;9839;53.364;-1.204;2023-11-19T14:15:34;4.57;;;0.97;;
19406;SDS011;9839;53.364;-1.204;2023-11-19T14:18:01;1.93;;;1.10;;
19406;SDS011;9839;53.364;-1.204;2023-11-19T14:20:27;1.47;;;0.90;;
19406;SDS011;9839;53.364;-1.204;2023-11-19T14:22:52;1.37;;;0.93;;
19406;SDS011;9839;53.364;-1.204;2023-11-19T14:25:18;2.20;;;0.97;;
19406;SDS011;9839;53.364;-1.204;2023-11-19T14:27:44;1.07;;;0.93;;
19406;SDS011;9839;53.364;-1.204;2023-11-19T14:30:12;2.70;;;1.10;;
19406;SDS011;9839;53.364;-1.204;2023-11-19T14:32:41;2.50;;;1.00;;
19406;SDS011;9839;53.364;-1.204;2023-11-19T14:35:09;3.27;;;1.00;;
19406;SDS011;9839;53.364;-1.204;2023-11-19T14:37:34;4.00;;;0.90;;
19406;SDS011;9839;53.364;-1.204;2023-11-19T14:40:00;4.17;;;0.60;;
19406;SDS011;9839;53.364;-1.204;2023-11-19T14:42:27;0.60;;;0.40;;
19406;SDS011;9839;53.364;-1.204;2023-11-19T14:44:52;2.67;;;0.70;;
19406;SDS011;9839;53.364;-1.204;2023-11-19T14:47:18;1.00;;;0.83;;
19406;SDS011;9839;53.364;-1.204;2023-11-19T14:49:44;4.30;;;0.67;;
19406;SDS011;9839;53.364;-1.204;2023-11-19T14:52:10;2.47;;;0.70;;
19406;SDS011;9839;53.364;-1.204;2023-11-19T14:54:36;3.43;;;0.90;;
19406;SDS011;9839;53.364;-1.204;2023-11-19T14:57:02;1.00;;;0.80;;
19406;SDS011;9839;53.364;-1.204;2023-11-19T14:59:28;2.23;;;0.90;;